sensor_id;sensor_type;location;lat;lon;timestamp;temperature;humidity
69776;DHT22;57049;51.450;-2.516;2023-12-14T00:01:57;1.22;99.99
69776;DHT22;57049;51.450;-2.516;2023-12-14T00:04:22;1.18;99.99
69776;DHT22;57049;51.450;-2.516;2023-12-14T00:06:48;1.15;99.99
69776;DHT22;57049;51.450;-2.516;2023-12-14T00:09:13;1.09;99.99
69776;DHT22;57049;51.450;-2.516;2023-12-14T00:11:39;1.06;99.99
69776;DHT22;57049;51.450;-2.516;2023-12-14T00:14:05;1.06;99.99
69776;DHT22;57049;51.450;-2.516;2023-12-14T00:16:30;1.05;99.99
69776;DHT22;57049;51.450;-2.516;2023-12-14T00:18:56;1.05;99.99
69776;DHT22;57049;51.450;-2.516;2023-12-14T00:21:21;1.01;99.99
69776;DHT22;57049;51.450;-2.516;2023-12-14T00:23:47;1.06;99.99
69776;DHT22;57049;51.450;-2.516;2023-12-14T00:26:12;1.01;99.99
69776;DHT22;57049;51.450;-2.516;2023-12-14T00:28:38;0.99;99.99
69776;DHT22;57049;51.450;-2.516;2023-12-14T00:31:03;0.95;99.99
69776;DHT22;57049;51.450;-2.516;2023-12-14T00:33:29;0.95;99.99
69776;DHT22;57049;51.450;-2.516;2023-12-14T00:35:54;0.93;99.99
69776;DHT22;57049;51.450;-2.516;2023-12-14T00:38:20;0.89;99.99
69776;DHT22;57049;51.450;-2.516;2023-12-14T00:40:45;0.87;99.99
69776;DHT22;57049;51.450;-2.516;2023-12-14T00:43:11;0.87;99.99
69776;DHT22;57049;51.450;-2.516;2023-12-14T00:45:36;0.84;99.99
69776;DHT22;57049;51.450;-2.516;2023-12-14T00:48:02;0.87;99.99
69776;DHT22;57049;51.450;-2.516;2023-12-14T00:50:27;0.84;99.99
69776;DHT22;57049;51.450;-2.516;2023-12-14T00:52:53;0.81;99.99
69776;DHT22;57049;51.450;-2.516;2023-12-14T00:55:18;0.78;99.99
69776;DHT22;57049;51.450;-2.516;2023-12-14T00:57:44;0.74;99.99
69776;DHT22;57049;51.450;-2.516;2023-12-14T01:00:09;0.72;99.99
69776;DHT22;57049;51.450;-2.516;2023-12-14T01:02:36;0.74;99.99
69776;DHT22;57049;51.450;-2.516;2023-12-14T01:05:02;0.71;99.99
69776;DHT22;57049;51.450;-2.516;2023-12-14T01:07:27;0.72;99.99
69776;DHT22;57049;51.450;-2.516;2023-12-14T01:09:53;0.70;99.99
69776;DHT22;57049;51.450;-2.516;2023-12-14T01:12:18;0.74;99.99
69776;DHT22;57049;51.450;-2.516;2023-12-14T01:14:44;0.70;99.99
69776;DHT22;57049;51.450;-2.516;2023-12-14T01:17:09;0.70;99.99
69776;DHT22;57049;51.450;-2.516;2023-12-14T01:19:34;0.67;99.99
69776;DHT22;57049;51.450;-2.516;2023-12-14T01:22:00;0.68;99.99
69776;DHT22;57049;51.450;-2.516;2023-12-14T01:24:25;0.67;99.99
69776;DHT22;57049;51.450;-2.516;2023-12-14T01:26:51;0.68;99.99
69776;DHT22;57049;51.450;-2.516;2023-12-14T01:29:16;0.68;99.99
69776;DHT22;57049;51.450;-2.516;2023-12-14T01:31:42;0.67;99.99
69776;DHT22;57049;51.450;-2.516;2023-12-14T01:34:07;0.64;99.99
69776;DHT22;57049;51.450;-2.516;2023-12-14T01:36:35;0.62;99.99
69776;DHT22;57049;51.450;-2.516;2023-12-14T01:39:01;0.62;99.99
69776;DHT22;57049;51.450;-2.516;2023-12-14T01:41:26;0.65;99.99
69776;DHT22;57049;51.450;-2.516;2023-12-14T01:43:51;0.70;99.99
69776;DHT22;57049;51.450;-2.516;2023-12-14T01:46:17;0.72;99.99
69776;DHT22;57049;51.450;-2.516;2023-12-14T01:48:42;0.72;99.99
69776;DHT22;57049;51.450;-2.516;2023-12-14T01:51:08;0.78;99.99
69776;DHT22;57049;51.450;-2.516;2023-12-14T01:53:33;0.80;99.99
69776;DHT22;57049;51.450;-2.516;2023-12-14T01:55:59;0.85;99.99
69776;DHT22;57049;51.450;-2.516;2023-12-14T01:58:24;0.85;99.99
69776;DHT22;57049;51.450;-2.516;2023-12-14T02:03:45;0.85;99.99
69776;DHT22;57049;51.450;-2.516;2023-12-14T02:06:11;0.91;99.99
69776;DHT22;57049;51.450;-2.516;2023-12-14T02:08:36;0.98;99.99
69776;DHT22;57049;51.450;-2.516;2023-12-14T02:11:02;0.98;99.99
69776;DHT22;57049;51.450;-2.516;2023-12-14T02:13:28;0.98;99.99
69776;DHT22;57049;51.450;-2.516;2023-12-14T02:15:53;0.98;99.99
69776;DHT22;57049;51.450;-2.516;2023-12-14T02:18:19;1.05;99.99
69776;DHT22;57049;51.450;-2.516;2023-12-14T02:20:44;1.05;99.99
69776;DHT22;57049;51.450;-2.516;2023-12-14T02:23:10;1.11;99.99
69776;DHT22;57049;51.450;-2.516;2023-12-14T02:25:35;1.15;99.99
69776;DHT22;57049;51.450;-2.516;2023-12-14T02:28:01;1.25;99.99
69776;DHT22;57049;51.450;-2.516;2023-12-14T02:30:26;1.31;99.99
69776;DHT22;57049;51.450;-2.516;2023-12-14T02:32:52;1.38;99.99
69776;DHT22;57049;51.450;-2.516;2023-12-14T02:35:17;1.43;99.99
69776;DHT22;57049;51.450;-2.516;2023-12-14T02:37:43;1.50;99.99
69776;DHT22;57049;51.450;-2.516;2023-12-14T02:40:10;1.54;99.99
69776;DHT22;57049;51.450;-2.516;2023-12-14T02:42:36;1.60;99.99
69776;DHT22;57049;51.450;-2.516;2023-12-14T02:45:02;1.60;99.99
69776;DHT22;57049;51.450;-2.516;2023-12-14T02:47:30;1.63;99.99
69776;DHT22;57049;51.450;-2.516;2023-12-14T02:49:55;1.59;99.99
69776;DHT22;57049;51.450;-2.516;2023-12-14T02:52:22;1.59;99.99
69776;DHT22;57049;51.450;-2.516;2023-12-14T02:54:47;1.62;99.99
69776;DHT22;57049;51.450;-2.516;2023-12-14T02:57:13;1.62;99.99
69776;DHT22;57049;51.450;-2.516;2023-12-14T02:59:39;1.67;99.99
69776;DHT22;57049;51.450;-2.516;2023-12-14T03:02:05;1.66;99.99
69776;DHT22;57049;51.450;-2.516;2023-12-14T03:04:31;1.70;99.99
69776;DHT22;57049;51.450;-2.516;2023-12-14T03:06:56;1.70;99.99
69776;DHT22;57049;51.450;-2.516;2023-12-14T03:09:22;1.77;99.99
69776;DHT22;57049;51.450;-2.516;2023-12-14T03:11:48;1.87;99.99
69776;DHT22;57049;51.450;-2.516;2023-12-14T03:14:13;1.93;99.99
69776;DHT22;57049;51.450;-2.516;2023-12-14T03:16:39;1.98;99.99
69776;DHT22;57049;51.450;-2.516;2023-12-14T03:19:05;2.01;99.99
69776;DHT22;57049;51.450;-2.516;2023-12-14T03:21:30;2.04;99.99
69776;DHT22;57049;51.450;-2.516;2023-12-14T03:23:56;2.07;99.99
69776;DHT22;57049;51.450;-2.516;2023-12-14T03:26:21;2.11;99.99
69776;DHT22;57049;51.450;-2.516;2023-12-14T03:28:47;2.14;99.99
69776;DHT22;57049;51.450;-2.516;2023-12-14T03:31:13;2.21;99.99
69776;DHT22;57049;51.450;-2.516;2023-12-14T03:33:39;2.22;99.99
69776;DHT22;57049;51.450;-2.516;2023-12-14T03:36:05;2.28;99.99
69776;DHT22;57049;51.450;-2.516;2023-12-14T03:38:31;2.32;99.99
69776;DHT22;57049;51.450;-2.516;2023-12-14T03:40:57;2.36;99.99
69776;DHT22;57049;51.450;-2.516;2023-12-14T03:43:22;2.39;99.99
69776;DHT22;57049;51.450;-2.516;2023-12-14T03:45:48;2.44;99.99
69776;DHT22;57049;51.450;-2.516;2023-12-14T03:48:14;2.46;99.96
69776;DHT22;57049;51.450;-2.516;2023-12-14T03:50:39;2.45;99.62
69776;DHT22;57049;51.450;-2.516;2023-12-14T03:53:04;2.46;99.82
69776;DHT22;57049;51.450;-2.516;2023-12-14T03:55:30;2.49;99.59
69776;DHT22;57049;51.450;-2.516;2023-12-14T03:57:56;2.49;99.59
69776;DHT22;57049;51.450;-2.516;2023-12-14T04:00:21;2.55;99.66
69776;DHT22;57049;51.450;-2.516;2023-12-14T04:02:47;2.55;99.78
69776;DHT22;57049;51.450;-2.516;2023-12-14T04:05:12;2.56;99.66
69776;DHT22;57049;51.450;-2.516;2023-12-14T04:07:38;2.59;99.65
69776;DHT22;57049;51.450;-2.516;2023-12-14T04:10:08;2.65;99.62
69776;DHT22;57049;51.450;-2.516;2023-12-14T04:12:37;2.69;99.66
69776;DHT22;57049;51.450;-2.516;2023-12-14T04:15:04;2.72;99.52
69776;DHT22;57049;51.450;-2.516;2023-12-14T04:17:33;2.76;99.47
69776;DHT22;57049;51.450;-2.516;2023-12-14T04:19:58;2.79;99.36
69776;DHT22;57049;51.450;-2.516;2023-12-14T04:22:24;2.80;99.38
69776;DHT22;57049;51.450;-2.516;2023-12-14T04:24:50;2.80;99.36
69776;DHT22;57049;51.450;-2.516;2023-12-14T04:27:16;2.83;99.38
69776;DHT22;57049;51.450;-2.516;2023-12-14T04:29:41;2.85;99.30
69776;DHT22;57049;51.450;-2.516;2023-12-14T04:32:08;2.89;99.13
69776;DHT22;57049;51.450;-2.516;2023-12-14T04:34:33;2.97;99.48
69776;DHT22;57049;51.450;-2.516;2023-12-14T04:36:59;2.99;99.22
69776;DHT22;57049;51.450;-2.516;2023-12-14T04:39:25;3.04;99.27
69776;DHT22;57049;51.450;-2.516;2023-12-14T04:41:51;3.03;98.96
69776;DHT22;57049;51.450;-2.516;2023-12-14T04:44:18;3.08;99.14
69776;DHT22;57049;51.450;-2.516;2023-12-14T04:46:43;3.11;98.92
69776;DHT22;57049;51.450;-2.516;2023-12-14T04:49:09;3.11;99.08
69776;DHT22;57049;51.450;-2.516;2023-12-14T04:51:34;3.13;98.74
69776;DHT22;57049;51.450;-2.516;2023-12-14T04:54:00;3.26;98.82
69776;DHT22;57049;51.450;-2.516;2023-12-14T04:56:25;3.23;98.28
69776;DHT22;57049;51.450;-2.516;2023-12-14T04:58:51;3.26;98.42
69776;DHT22;57049;51.450;-2.516;2023-12-14T05:01:16;3.23;98.20
69776;DHT22;57049;51.450;-2.516;2023-12-14T05:03:42;3.24;98.16
69776;DHT22;57049;51.450;-2.516;2023-12-14T05:06:07;3.28;97.93
69776;DHT22;57049;51.450;-2.516;2023-12-14T05:08:33;3.30;97.95
69776;DHT22;57049;51.450;-2.516;2023-12-14T05:10:59;3.31;97.86
69776;DHT22;57049;51.450;-2.516;2023-12-14T05:13:24;3.32;97.96
69776;DHT22;57049;51.450;-2.516;2023-12-14T05:15:51;3.32;98.27
69776;DHT22;57049;51.450;-2.516;2023-12-14T05:18:17;3.31;98.19
69776;DHT22;57049;51.450;-2.516;2023-12-14T05:20:43;3.34;98.34
69776;DHT22;57049;51.450;-2.516;2023-12-14T05:23:10;3.37;98.40
69776;DHT22;57049;51.450;-2.516;2023-12-14T05:25:36;3.37;98.17
69776;DHT22;57049;51.450;-2.516;2023-12-14T05:28:01;3.44;98.11
69776;DHT22;57049;51.450;-2.516;2023-12-14T05:30:27;3.45;98.09
69776;DHT22;57049;51.450;-2.516;2023-12-14T05:32:52;3.47;98.22
69776;DHT22;57049;51.450;-2.516;2023-12-14T05:35:18;3.52;98.13
69776;DHT22;57049;51.450;-2.516;2023-12-14T05:37:43;3.52;97.88
69776;DHT22;57049;51.450;-2.516;2023-12-14T05:40:09;3.58;97.87
69776;DHT22;57049;51.450;-2.516;2023-12-14T05:42:35;3.60;98.08
69776;DHT22;57049;51.450;-2.516;2023-12-14T05:45:00;3.62;98.09
69776;DHT22;57049;51.450;-2.516;2023-12-14T05:47:27;3.67;97.90
69776;DHT22;57049;51.450;-2.516;2023-12-14T05:49:52;3.68;97.57
69776;DHT22;57049;51.450;-2.516;2023-12-14T05:52:18;3.74;97.54
69776;DHT22;57049;51.450;-2.516;2023-12-14T05:54:43;3.78;97.44
69776;DHT22;57049;51.450;-2.516;2023-12-14T05:57:09;3.82;97.33
69776;DHT22;57049;51.450;-2.516;2023-12-14T05:59:38;3.88;97.10
69776;DHT22;57049;51.450;-2.516;2023-12-14T06:02:04;3.88;97.00
69776;DHT22;57049;51.450;-2.516;2023-12-14T06:04:30;3.95;97.34
69776;DHT22;57049;51.450;-2.516;2023-12-14T06:06:55;3.92;97.26
69776;DHT22;57049;51.450;-2.516;2023-12-14T06:09:21;3.92;97.41
69776;DHT22;57049;51.450;-2.516;2023-12-14T06:11:51;3.95;97.46
69776;DHT22;57049;51.450;-2.516;2023-12-14T06:14:17;3.99;97.47
69776;DHT22;57049;51.450;-2.516;2023-12-14T06:16:42;3.98;97.49
69776;DHT22;57049;51.450;-2.516;2023-12-14T06:19:08;3.98;97.75
69776;DHT22;57049;51.450;-2.516;2023-12-14T06:21:33;4.01;98.22
69776;DHT22;57049;51.450;-2.516;2023-12-14T06:23:59;3.98;98.14
69776;DHT22;57049;51.450;-2.516;2023-12-14T06:26:25;4.06;98.01
69776;DHT22;57049;51.450;-2.516;2023-12-14T06:28:50;4.06;98.07
69776;DHT22;57049;51.450;-2.516;2023-12-14T06:31:17;4.06;98.34
69776;DHT22;57049;51.450;-2.516;2023-12-14T06:33:43;4.05;98.62
69776;DHT22;57049;51.450;-2.516;2023-12-14T06:36:09;4.10;98.47
69776;DHT22;57049;51.450;-2.516;2023-12-14T06:38:36;4.10;98.74
69776;DHT22;57049;51.450;-2.516;2023-12-14T06:41:02;4.16;98.95
69776;DHT22;57049;51.450;-2.516;2023-12-14T06:43:28;4.17;98.77
69776;DHT22;57049;51.450;-2.516;2023-12-14T06:45:53;4.20;98.72
69776;DHT22;57049;51.450;-2.516;2023-12-14T06:48:20;4.19;99.01
69776;DHT22;57049;51.450;-2.516;2023-12-14T06:50:45;4.19;99.09
69776;DHT22;57049;51.450;-2.516;2023-12-14T06:53:14;4.20;99.02
69776;DHT22;57049;51.450;-2.516;2023-12-14T06:55:41;4.22;99.11
69776;DHT22;57049;51.450;-2.516;2023-12-14T06:58:06;4.23;99.16
69776;DHT22;57049;51.450;-2.516;2023-12-14T07:00:37;4.28;99.16
69776;DHT22;57049;51.450;-2.516;2023-12-14T07:03:02;4.32;98.89
69776;DHT22;57049;51.450;-2.516;2023-12-14T07:05:28;4.32;99.18
69776;DHT22;57049;51.450;-2.516;2023-12-14T07:07:54;4.33;99.28
69776;DHT22;57049;51.450;-2.516;2023-12-14T07:10:19;4.33;99.36
69776;DHT22;57049;51.450;-2.516;2023-12-14T07:12:45;4.39;99.39
69776;DHT22;57049;51.450;-2.516;2023-12-14T07:15:11;4.44;99.35
69776;DHT22;57049;51.450;-2.516;2023-12-14T07:17:37;4.49;99.20
69776;DHT22;57049;51.450;-2.516;2023-12-14T07:20:03;4.50;99.59
69776;DHT22;57049;51.450;-2.516;2023-12-14T07:22:28;4.50;99.44
69776;DHT22;57049;51.450;-2.516;2023-12-14T07:24:54;4.53;99.51
69776;DHT22;57049;51.450;-2.516;2023-12-14T07:27:19;4.54;99.60
69776;DHT22;57049;51.450;-2.516;2023-12-14T07:29:45;4.56;99.68
69776;DHT22;57049;51.450;-2.516;2023-12-14T07:32:10;4.57;99.89
69776;DHT22;57049;51.450;-2.516;2023-12-14T07:34:36;4.58;99.88
69776;DHT22;57049;51.450;-2.516;2023-12-14T07:37:01;4.63;99.99
69776;DHT22;57049;51.450;-2.516;2023-12-14T07:39:27;4.63;99.99
69776;DHT22;57049;51.450;-2.516;2023-12-14T07:41:52;4.70;99.86
69776;DHT22;57049;51.450;-2.516;2023-12-14T07:44:17;4.70;99.90
69776;DHT22;57049;51.450;-2.516;2023-12-14T07:46:43;4.71;99.99
69776;DHT22;57049;51.450;-2.516;2023-12-14T07:49:09;4.73;99.99
69776;DHT22;57049;51.450;-2.516;2023-12-14T07:51:34;4.74;99.99
69776;DHT22;57049;51.450;-2.516;2023-12-14T07:54:00;4.78;99.99
69776;DHT22;57049;51.450;-2.516;2023-12-14T07:56:25;4.81;99.99
69776;DHT22;57049;51.450;-2.516;2023-12-14T07:58:53;4.83;99.99
69776;DHT22;57049;51.450;-2.516;2023-12-14T08:01:18;4.84;99.99
69776;DHT22;57049;51.450;-2.516;2023-12-14T08:03:44;4.89;99.99
69776;DHT22;57049;51.450;-2.516;2023-12-14T08:06:10;4.89;99.99
69776;DHT22;57049;51.450;-2.516;2023-12-14T08:08:36;4.92;99.99
69776;DHT22;57049;51.450;-2.516;2023-12-14T08:11:03;4.94;99.99
69776;DHT22;57049;51.450;-2.516;2023-12-14T08:13:29;4.95;99.99
69776;DHT22;57049;51.450;-2.516;2023-12-14T08:15:55;4.92;99.99
69776;DHT22;57049;51.450;-2.516;2023-12-14T08:18:20;4.92;99.99
69776;DHT22;57049;51.450;-2.516;2023-12-14T08:20:45;4.92;99.99
69776;DHT22;57049;51.450;-2.516;2023-12-14T08:23:11;5.01;99.99
69776;DHT22;57049;51.450;-2.516;2023-12-14T08:25:36;5.01;99.99
69776;DHT22;57049;51.450;-2.516;2023-12-14T08:28:02;5.04;99.99
69776;DHT22;57049;51.450;-2.516;2023-12-14T08:30:27;5.08;99.99
69776;DHT22;57049;51.450;-2.516;2023-12-14T08:32:53;5.11;99.99
69776;DHT22;57049;51.450;-2.516;2023-12-14T08:35:19;5.15;99.99
69776;DHT22;57049;51.450;-2.516;2023-12-14T08:37:44;5.21;99.99
69776;DHT22;57049;51.450;-2.516;2023-12-14T08:40:10;5.26;99.99
69776;DHT22;57049;51.450;-2.516;2023-12-14T08:42:35;5.34;99.99
69776;DHT22;57049;51.450;-2.516;2023-12-14T08:45:01;5.38;99.99
69776;DHT22;57049;51.450;-2.516;2023-12-14T08:47:27;5.49;99.99
69776;DHT22;57049;51.450;-2.516;2023-12-14T08:49:52;5.57;99.99
69776;DHT22;57049;51.450;-2.516;2023-12-14T08:52:18;5.63;99.99
69776;DHT22;57049;51.450;-2.516;2023-12-14T08:54:44;5.73;99.99
69776;DHT22;57049;51.450;-2.516;2023-12-14T08:57:10;5.80;99.99
69776;DHT22;57049;51.450;-2.516;2023-12-14T08:59:35;5.86;99.99
69776;DHT22;57049;51.450;-2.516;2023-12-14T09:02:00;5.89;99.99
69776;DHT22;57049;51.450;-2.516;2023-12-14T09:04:26;5.98;99.99
69776;DHT22;57049;51.450;-2.516;2023-12-14T09:06:52;6.01;99.99
69776;DHT22;57049;51.450;-2.516;2023-12-14T09:09:18;6.11;99.99
69776;DHT22;57049;51.450;-2.516;2023-12-14T09:11:44;6.22;99.99
69776;DHT22;57049;51.450;-2.516;2023-12-14T09:14:10;6.29;99.99
69776;DHT22;57049;51.450;-2.516;2023-12-14T09:16:35;6.31;99.99
69776;DHT22;57049;51.450;-2.516;2023-12-14T09:19:00;6.29;99.99
69776;DHT22;57049;51.450;-2.516;2023-12-14T09:21:26;6.28;99.99
69776;DHT22;57049;51.450;-2.516;2023-12-14T09:23:52;6.34;99.99
69776;DHT22;57049;51.450;-2.516;2023-12-14T09:26:19;6.35;99.99
69776;DHT22;57049;51.450;-2.516;2023-12-14T09:28:47;6.38;99.99
69776;DHT22;57049;51.450;-2.516;2023-12-14T09:31:13;6.49;99.99
69776;DHT22;57049;51.450;-2.516;2023-12-14T09:33:38;6.61;99.99
69776;DHT22;57049;51.450;-2.516;2023-12-14T09:36:04;6.72;99.99
69776;DHT22;57049;51.450;-2.516;2023-12-14T09:38:30;6.80;99.99
69776;DHT22;57049;51.450;-2.516;2023-12-14T09:40:56;6.80;99.99
69776;DHT22;57049;51.450;-2.516;2023-12-14T09:43:22;6.90;99.99
69776;DHT22;57049;51.450;-2.516;2023-12-14T09:45:49;6.90;99.99
69776;DHT22;57049;51.450;-2.516;2023-12-14T09:48:16;6.90;99.99
69776;DHT22;57049;51.450;-2.516;2023-12-14T09:50:41;6.97;99.99
69776;DHT22;57049;51.450;-2.516;2023-12-14T09:53:07;7.10;99.99
69776;DHT22;57049;51.450;-2.516;2023-12-14T09:55:33;7.09;99.99
69776;DHT22;57049;51.450;-2.516;2023-12-14T09:57:59;7.09;99.99
69776;DHT22;57049;51.450;-2.516;2023-12-14T10:03:20;7.19;99.99
69776;DHT22;57049;51.450;-2.516;2023-12-14T10:05:46;7.24;99.99
69776;DHT22;57049;51.450;-2.516;2023-12-14T10:08:12;7.28;99.99
69776;DHT22;57049;51.450;-2.516;2023-12-14T10:10:37;7.31;99.99
69776;DHT22;57049;51.450;-2.516;2023-12-14T10:13:03;7.33;99.99
69776;DHT22;57049;51.450;-2.516;2023-12-14T10:15:29;7.34;99.99
69776;DHT22;57049;51.450;-2.516;2023-12-14T10:17:55;7.38;99.99
69776;DHT22;57049;51.450;-2.516;2023-12-14T10:20:21;7.38;99.99
69776;DHT22;57049;51.450;-2.516;2023-12-14T10:22:48;7.43;99.99
69776;DHT22;57049;51.450;-2.516;2023-12-14T10:25:14;7.46;99.99
69776;DHT22;57049;51.450;-2.516;2023-12-14T10:27:40;7.53;99.99
69776;DHT22;57049;51.450;-2.516;2023-12-14T10:30:11;7.57;99.99
69776;DHT22;57049;51.450;-2.516;2023-12-14T10:32:40;7.63;99.99
69776;DHT22;57049;51.450;-2.516;2023-12-14T10:35:07;7.68;99.99
69776;DHT22;57049;51.450;-2.516;2023-12-14T10:37:37;7.71;99.99
69776;DHT22;57049;51.450;-2.516;2023-12-14T10:40:14;7.74;99.99
69776;DHT22;57049;51.450;-2.516;2023-12-14T10:42:44;7.81;99.99
69776;DHT22;57049;51.450;-2.516;2023-12-14T10:45:12;7.86;99.99
69776;DHT22;57049;51.450;-2.516;2023-12-14T10:47:43;8.02;99.99
69776;DHT22;57049;51.450;-2.516;2023-12-14T10:50:10;8.16;99.99
69776;DHT22;57049;51.450;-2.516;2023-12-14T10:52:38;8.35;99.99
69776;DHT22;57049;51.450;-2.516;2023-12-14T10:55:09;8.45;99.56
69776;DHT22;57049;51.450;-2.516;2023-12-14T10:57:36;8.50;99.51
69776;DHT22;57049;51.450;-2.516;2023-12-14T11:00:03;8.56;99.54
69776;DHT22;57049;51.450;-2.516;2023-12-14T11:02:30;8.61;99.53
69776;DHT22;57049;51.450;-2.516;2023-12-14T11:05:02;8.68;99.23
69776;DHT22;57049;51.450;-2.516;2023-12-14T11:07:47;8.81;99.27
69776;DHT22;57049;51.450;-2.516;2023-12-14T11:10:13;8.77;99.14
69776;DHT22;57049;51.450;-2.516;2023-12-14T11:13:06;8.85;99.29
69776;DHT22;57049;51.450;-2.516;2023-12-14T11:15:35;8.87;99.28
69776;DHT22;57049;51.450;-2.516;2023-12-14T11:23:14;9.11;99.31
69776;DHT22;57049;51.450;-2.516;2023-12-14T11:25:41;9.15;99.37
69776;DHT22;57049;51.450;-2.516;2023-12-14T11:28:07;9.18;99.52
69776;DHT22;57049;51.450;-2.516;2023-12-14T11:30:36;9.14;99.52
69776;DHT22;57049;51.450;-2.516;2023-12-14T11:33:02;9.18;99.61
69776;DHT22;57049;51.450;-2.516;2023-12-14T11:35:29;9.24;99.56
69776;DHT22;57049;51.450;-2.516;2023-12-14T11:37:55;9.22;99.55
69776;DHT22;57049;51.450;-2.516;2023-12-14T11:40:23;9.34;99.55
69776;DHT22;57049;51.450;-2.516;2023-12-14T11:42:58;9.43;99.57
69776;DHT22;57049;51.450;-2.516;2023-12-14T11:45:24;9.46;99.58
69776;DHT22;57049;51.450;-2.516;2023-12-14T11:47:51;9.55;99.32
69776;DHT22;57049;51.450;-2.516;2023-12-14T11:50:17;9.65;99.49
69776;DHT22;57049;51.450;-2.516;2023-12-14T11:52:42;9.68;99.53
69776;DHT22;57049;51.450;-2.516;2023-12-14T11:55:10;9.69;99.38
69776;DHT22;57049;51.450;-2.516;2023-12-14T11:57:35;9.79;99.27
69776;DHT22;57049;51.450;-2.516;2023-12-14T12:00:01;9.82;99.30
69776;DHT22;57049;51.450;-2.516;2023-12-14T12:02:28;9.82;99.25
69776;DHT22;57049;51.450;-2.516;2023-12-14T12:04:53;9.82;99.38
69776;DHT22;57049;51.450;-2.516;2023-12-14T12:07:19;9.82;99.53
69776;DHT22;57049;51.450;-2.516;2023-12-14T12:09:45;9.78;99.69
69776;DHT22;57049;51.450;-2.516;2023-12-14T12:12:11;9.80;99.68
69776;DHT22;57049;51.450;-2.516;2023-12-14T12:14:38;9.80;99.90
69776;DHT22;57049;51.450;-2.516;2023-12-14T12:17:05;9.87;99.91
69776;DHT22;57049;51.450;-2.516;2023-12-14T12:19:35;9.96;99.91
69776;DHT22;57049;51.450;-2.516;2023-12-14T12:22:02;10.00;99.92
69776;DHT22;57049;51.450;-2.516;2023-12-14T12:24:28;10.03;99.78
69776;DHT22;57049;51.450;-2.516;2023-12-14T12:26:54;10.00;99.87
69776;DHT22;57049;51.450;-2.516;2023-12-14T12:29:20;9.97;99.73
69776;DHT22;57049;51.450;-2.516;2023-12-14T12:31:47;9.86;99.99
69776;DHT22;57049;51.450;-2.516;2023-12-14T12:34:12;9.79;99.97
69776;DHT22;57049;51.450;-2.516;2023-12-14T12:36:38;9.69;99.99
69776;DHT22;57049;51.450;-2.516;2023-12-14T12:39:04;9.78;99.99
69776;DHT22;57049;51.450;-2.516;2023-12-14T12:41:32;9.85;99.99
69776;DHT22;57049;51.450;-2.516;2023-12-14T12:43:58;9.92;99.99
69776;DHT22;57049;51.450;-2.516;2023-12-14T12:46:33;10.01;99.96
69776;DHT22;57049;51.450;-2.516;2023-12-14T12:49:03;10.04;99.85
69776;DHT22;57049;51.450;-2.516;2023-12-14T12:51:29;9.96;99.76
69776;DHT22;57049;51.450;-2.516;2023-12-14T12:53:57;9.99;99.77
69776;DHT22;57049;51.450;-2.516;2023-12-14T12:56:23;10.20;99.56
69776;DHT22;57049;51.450;-2.516;2023-12-14T12:58:49;10.37;99.34
69776;DHT22;57049;51.450;-2.516;2023-12-14T13:01:17;10.58;99.54
69776;DHT22;57049;51.450;-2.516;2023-12-14T13:03:42;10.62;98.94
69776;DHT22;57049;51.450;-2.516;2023-12-14T13:06:08;10.57;98.55
69776;DHT22;57049;51.450;-2.516;2023-12-14T13:08:34;10.48;98.67
69776;DHT22;57049;51.450;-2.516;2023-12-14T13:10:59;10.47;98.48
69776;DHT22;57049;51.450;-2.516;2023-12-14T13:13:25;10.44;98.55
69776;DHT22;57049;51.450;-2.516;2023-12-14T13:15:51;10.45;98.56
69776;DHT22;57049;51.450;-2.516;2023-12-14T13:18:16;10.47;98.47
69776;DHT22;57049;51.450;-2.516;2023-12-14T13:20:42;10.54;98.24
69776;DHT22;57049;51.450;-2.516;2023-12-14T13:23:08;10.99;97.01
69776;DHT22;57049;51.450;-2.516;2023-12-14T13:25:34;11.42;96.11
69776;DHT22;57049;51.450;-2.516;2023-12-14T13:28:00;11.83;94.93
69776;DHT22;57049;51.450;-2.516;2023-12-14T13:30:26;12.10;93.76
69776;DHT22;57049;51.450;-2.516;2023-12-14T13:32:52;12.22;92.37
69776;DHT22;57049;51.450;-2.516;2023-12-14T13:35:19;12.11;91.92
69776;DHT22;57049;51.450;-2.516;2023-12-14T13:37:44;12.08;91.59
69776;DHT22;57049;51.450;-2.516;2023-12-14T13:40:11;12.11;91.78
69776;DHT22;57049;51.450;-2.516;2023-12-14T13:42:38;12.14;91.15
69776;DHT22;57049;51.450;-2.516;2023-12-14T13:45:04;12.08;90.81
69776;DHT22;57049;51.450;-2.516;2023-12-14T13:47:29;11.84;89.91
69776;DHT22;57049;51.450;-2.516;2023-12-14T13:49:55;11.78;90.39
69776;DHT22;57049;51.450;-2.516;2023-12-14T13:52:20;11.74;91.09
69776;DHT22;57049;51.450;-2.516;2023-12-14T13:54:45;11.60;91.31
69776;DHT22;57049;51.450;-2.516;2023-12-14T13:57:11;11.54;91.68
69776;DHT22;57049;51.450;-2.516;2023-12-14T13:59:36;11.49;92.02
69776;DHT22;57049;51.450;-2.516;2023-12-14T14:02:02;11.43;92.08
69776;DHT22;57049;51.450;-2.516;2023-12-14T14:04:27;11.35;92.28
69776;DHT22;57049;51.450;-2.516;2023-12-14T14:06:53;11.29;92.58
69776;DHT22;57049;51.450;-2.516;2023-12-14T14:09:18;11.23;92.56
69776;DHT22;57049;51.450;-2.516;2023-12-14T14:11:44;11.15;92.58
69776;DHT22;57049;51.450;-2.516;2023-12-14T14:14:13;11.13;92.91
69776;DHT22;57049;51.450;-2.516;2023-12-14T14:16:39;11.02;92.78
69776;DHT22;57049;51.450;-2.516;2023-12-14T14:19:05;10.98;92.90
69776;DHT22;57049;51.450;-2.516;2023-12-14T14:21:30;10.95;92.91
69776;DHT22;57049;51.450;-2.516;2023-12-14T14:23:55;10.92;93.20
69776;DHT22;57049;51.450;-2.516;2023-12-14T14:26:21;10.86;93.41
69776;DHT22;57049;51.450;-2.516;2023-12-14T14:28:46;10.81;93.72
69776;DHT22;57049;51.450;-2.516;2023-12-14T14:31:12;10.74;93.86
69776;DHT22;57049;51.450;-2.516;2023-12-14T14:33:37;10.69;94.02
69776;DHT22;57049;51.450;-2.516;2023-12-14T14:36:03;10.58;94.28
69776;DHT22;57049;51.450;-2.516;2023-12-14T14:38:31;10.60;94.80
69776;DHT22;57049;51.450;-2.516;2023-12-14T14:40:57;10.58;94.56
69776;DHT22;57049;51.450;-2.516;2023-12-14T14:43:22;10.50;94.79
69776;DHT22;57049;51.450;-2.516;2023-12-14T14:45:48;10.48;94.79
69776;DHT22;57049;51.450;-2.516;2023-12-14T14:48:13;10.47;94.77
69776;DHT22;57049;51.450;-2.516;2023-12-14T14:50:39;10.41;94.73
69776;DHT22;57049;51.450;-2.516;2023-12-14T14:53:04;10.40;94.91
69776;DHT22;57049;51.450;-2.516;2023-12-14T14:55:30;10.31;95.00
69776;DHT22;57049;51.450;-2.516;2023-12-14T14:57:56;10.30;95.26
69776;DHT22;57049;51.450;-2.516;2023-12-14T15:00:21;10.25;95.24
69776;DHT22;57049;51.450;-2.516;2023-12-14T15:02:48;10.27;95.19
69776;DHT22;57049;51.450;-2.516;2023-12-14T15:05:14;10.20;95.29
69776;DHT22;57049;51.450;-2.516;2023-12-14T15:07:39;10.13;95.46
69776;DHT22;57049;51.450;-2.516;2023-12-14T15:10:05;10.07;95.79
69776;DHT22;57049;51.450;-2.516;2023-12-14T15:12:31;9.99;96.11
69776;DHT22;57049;51.450;-2.516;2023-12-14T15:14:57;9.86;96.25
69776;DHT22;57049;51.450;-2.516;2023-12-14T15:17:22;9.76;96.46
69776;DHT22;57049;51.450;-2.516;2023-12-14T15:19:48;9.70;96.84
69776;DHT22;57049;51.450;-2.516;2023-12-14T15:22:15;9.66;96.92
69776;DHT22;57049;51.450;-2.516;2023-12-14T15:24:41;9.56;97.16
69776;DHT22;57049;51.450;-2.516;2023-12-14T15:27:06;9.53;97.32
69776;DHT22;57049;51.450;-2.516;2023-12-14T15:29:32;9.50;97.48
69776;DHT22;57049;51.450;-2.516;2023-12-14T15:31:57;9.48;97.98